Time;durP1;ratioP1;P1;durP2;ratioP2;P2;SDS_P1;SDS_P2;PMS_P1;PMS_P2;Temp;Humidity;BMP_temperature;BMP_pressure;BME280_temperature;BME280_humidity;BME280_pressure;Samples;Min_cycle;Max_cycle;Signal;HPM_P1;HPM_P2
2023/07/07 00:02:10;;;;;;;0.00;0.00;;;;;;;12.09;82.69;100342.09;5038886;28;20075;-76
2023/07/07 00:04:36;;;;;;;0.00;0.00;;;;;;;12.08;83.04;100354.19;5017568;28;20017;-76
2023/07/07 00:07:01;;;;;;;0.00;0.00;;;;;;;12.03;83.26;100341.28;5045825;28;20035;-76
2023/07/07 00:09:26;;;;;;;0.00;0.00;;;;;;;12.02;83.03;100340.47;5034150;28;20036;-76
2023/07/07 00:12:01;;;;;;;0.03;0.03;;;;;;;12.01;83.60;100349.78;5013664;28;20052;-75
2023/07/07 00:14:27;;;;;;;0.00;0.00;;;;;;;11.97;83.57;100346.00;5053273;28;20070;-75
2023/07/07 00:16:54;;;;;;;0.00;0.00;;;;;;;12.03;83.26;100364.06;5027359;28;20048;-76
2023/07/07 00:19:20;;;;;;;0.00;0.00;;;;;;;11.87;83.83;100343.22;5025002;28;20033;-77
2023/07/07 00:21:46;;;;;;;0.00;0.00;;;;;;;11.84;83.47;100350.09;5016170;28;20028;-77
2023/07/07 00:24:11;;;;;;;0.00;0.00;;;;;;;11.74;83.84;100338.28;5049364;28;20025;-76
2023/07/07 00:27:01;;;;;;;0.00;0.00;;;;;;;11.68;84.35;100343.78;5051650;28;20395;-76
2023/07/07 00:29:28;;;;;;;0.00;0.00;;;;;;;11.67;84.17;100344.06;5072682;28;20025;-76
2023/07/07 00:31:54;;;;;;;0.00;0.00;;;;;;;11.68;84.42;100351.19;5072592;28;20033;-77
2023/07/07 00:34:22;;;;;;;0.00;0.00;;;;;;;11.68;84.59;100359.38;5072276;28;20158;-76
2023/07/07 00:36:47;;;;;;;0.00;0.00;;;;;;;11.56;84.72;100351.47;5045720;28;20029;-76
2023/07/07 00:39:14;;;;;;;0.00;0.00;;;;;;;11.47;84.71;100344.91;5038631;28;20028;-77
2023/07/07 00:41:45;;;;;;;0.00;0.00;;;;;;;11.60;84.53;100371.72;5073406;28;20100;-76
2023/07/07 00:44:11;;;;;;;0.00;0.00;;;;;;;11.44;84.80;100348.19;5069292;28;20056;-76
2023/07/07 00:46:38;;;;;;;0.00;0.00;;;;;;;11.46;84.84;100365.16;5056331;28;20013;-77
2023/07/07 00:49:26;;;;;;;0.00;0.00;;;;;;;11.39;85.16;100359.13;5048633;28;20085;-76
2023/07/07 00:52:01;;;;;;;0.00;0.00;;;;;;;11.41;85.29;100356.94;5053746;28;20492;-77
2023/07/07 00:54:32;;;;;;;0.00;0.00;;;;;;;11.45;85.76;100369.00;5072611;28;20053;-76
2023/07/07 00:57:04;;;;;;;0.00;0.00;;;;;;;11.39;85.49;100356.38;5072595;28;20031;-76
2023/07/07 00:59:35;;;;;;;0.00;0.00;;;;;;;11.23;85.48;100350.91;5051063;28;20123;-77
2023/07/07 01:02:09;;;;;;;0.00;0.00;;;;;;;11.22;85.87;100354.75;5071223;28;20016;-75
2023/07/07 01:04:37;;;;;;;0.00;0.00;;;;;;;11.14;85.45;100352.53;5052510;28;20028;-75
2023/07/07 01:07:08;;;;;;;0.00;0.00;;;;;;;11.13;85.57;100339.97;5059314;28;20038;-77
2023/07/07 01:09:33;;;;;;;0.00;0.00;;;;;;;11.10;85.88;100341.31;5061903;28;20432;-76
2023/07/07 01:11:59;;;;;;;0.00;0.00;;;;;;;11.12;85.86;100349.25;5035685;28;20041;-77
2023/07/07 01:14:29;;;;;;;0.00;0.00;;;;;;;11.11;86.28;100350.34;5045135;28;20028;-77
2023/07/07 01:17:04;;;;;;;0.00;0.00;;;;;;;11.18;86.66;100361.84;5066378;28;20366;-78
2023/07/07 01:20:12;;;;;;;0.08;0.08;;;;;;;11.27;86.65;100373.06;5050269;28;20052;-77
2023/07/07 01:22:50;;;;;;;0.00;0.00;;;;;;;11.25;87.10;100376.09;5032701;28;20478;-77
2023/07/07 01:25:57;;;;;;;0.00;0.00;;;;;;;11.22;86.86;100379.38;5063104;28;20092;-76
2023/07/07 01:28:39;;;;;;;0.00;0.00;;;;;;;11.10;86.58;100362.41;5061036;28;20047;-76
2023/07/07 01:31:07;;;;;;;0.00;0.00;;;;;;;11.19;87.54;100379.91;5065147;28;20032;-77
2023/07/07 01:33:33;;;;;;;0.00;0.00;;;;;;;11.10;87.41;100370.59;5068923;28;20048;-76
2023/07/07 01:36:00;;;;;;;0.00;0.00;;;;;;;11.08;87.70;100368.16;5045503;28;20509;-77
2023/07/07 01:38:41;;;;;;;0.00;0.00;;;;;;;11.13;88.12;100375.53;5049365;28;20020;-77
2023/07/07 01:41:24;;;;;;;0.00;0.00;;;;;;;11.13;88.18;100367.31;5052173;28;20024;-77
2023/07/07 01:44:15;;;;;;;0.00;0.00;;;;;;;11.18;87.84;100384.59;5069028;28;20032;-76
2023/07/07 01:47:01;;;;;;;0.00;0.00;;;;;;;11.05;87.82;100367.84;5047320;28;20051;-77
2023/07/07 01:50:04;;;;;;;0.00;0.00;;;;;;;11.10;88.49;100384.28;5045974;28;20139;-76
2023/07/07 01:52:51;;;;;;;0.00;0.00;;;;;;;11.03;88.86;100378.25;5039629;28;20024;-76
2023/07/07 01:55:24;;;;;;;0.00;0.00;;;;;;;10.95;88.85;100365.91;5065114;28;20032;-75
2023/07/07 01:57:55;;;;;;;0.00;0.00;;;;;;;10.91;89.01;100371.09;5039109;28;20028;-76
2023/07/07 02:00:22;;;;;;;0.10;0.10;;;;;;;10.85;88.59;100350.31;5051572;28;20097;-75
2023/07/07 02:02:54;;;;;;;0.00;0.00;;;;;;;10.89;88.72;100356.84;5019821;28;20055;-77
2023/07/07 02:05:27;;;;;;;0.00;0.00;;;;;;;10.90;89.20;100363.97;5046291;28;20086;-77
2023/07/07 02:07:53;;;;;;;0.00;0.00;;;;;;;10.90;89.32;100369.44;5026613;28;20036;-77
2023/07/07 02:10:19;;;;;;;0.00;0.00;;;;;;;10.89;89.22;100373.28;5036731;28;20434;-75
2023/07/07 02:13:11;;;;;;;0.00;0.00;;;;;;;10.79;89.38;100352.19;5056486;28;20039;-76
2023/07/07 02:15:36;;;;;;;0.00;0.00;;;;;;;10.93;89.08;100368.91;5070541;28;20101;-76
2023/07/07 02:18:02;;;;;;;0.00;0.00;;;;;;;10.85;89.17;100353.03;5041613;28;20053;-75
2023/07/07 02:20:28;;;;;;;0.00;0.00;;;;;;;10.95;89.11;100377.69;5030451;28;20024;-75
2023/07/07 02:22:53;;;;;;;0.00;0.00;;;;;;;10.93;89.20;100368.91;5035761;28;20040;-74
2023/07/07 02:25:19;;;;;;;0.00;0.00;;;;;;;10.93;89.63;100362.63;5040673;28;20025;-78
2023/07/07 02:27:45;;;;;;;0.00;0.00;;;;;;;10.88;89.67;100355.22;5019627;28;20047;-74
2023/07/07 02:30:10;;;;;;;0.08;0.08;;;;;;;10.92;89.77;100364.53;5027689;28;20037;-74
2023/07/07 02:32:39;;;;;;;0.00;0.00;;;;;;;10.90;90.08;100363.16;5039911;28;20021;-75
2023/07/07 02:35:06;;;;;;;0.00;0.00;;;;;;;10.86;90.01;100357.41;5059484;28;20459;-74
2023/07/07 02:37:31;;;;;;;0.00;0.00;;;;;;;10.85;90.13;100355.78;5033883;28;20024;-76
2023/07/07 02:39:57;;;;;;;0.00;0.00;;;;;;;10.79;89.48;100348.63;5023922;28;20505;-76
2023/07/07 02:42:23;;;;;;;0.00;0.00;;;;;;;10.79;90.10;100354.94;5031976;28;21122;-76
2023/07/07 02:44:51;;;;;;;0.00;0.00;;;;;;;10.72;90.32;100339.84;5064933;28;20024;-76
2023/07/07 02:47:17;;;;;;;0.00;0.00;;;;;;;10.64;90.49;100333.84;5061263;28;20799;-76
2023/07/07 02:49:42;;;;;;;0.10;0.10;;;;;;;10.64;90.70;100333.84;5047982;28;20033;-76
2023/07/07 02:52:08;;;;;;;0.00;0.00;;;;;;;10.73;90.52;100357.91;5048071;28;20025;-76
2023/07/07 02:54:34;;;;;;;0.00;0.00;;;;;;;10.64;90.38;100339.31;5033654;28;20033;-74
2023/07/07 02:57:01;;;;;;;0.00;0.00;;;;;;;10.56;90.72;100322.59;5062927;28;20035;-76
2023/07/07 02:59:26;;;;;;;0.00;0.00;;;;;;;10.68;90.56;100339.56;5054992;28;20032;-75
2023/07/07 03:01:51;;;;;;;0.00;0.00;;;;;;;10.61;90.51;100345.28;5029612;28;20028;-75
2023/07/07 03:04:17;;;;;;;0.00;0.00;;;;;;;10.64;90.86;100352.97;5045975;28;20029;-75
2023/07/07 03:06:42;;;;;;;0.00;0.00;;;;;;;10.62;90.78;100349.66;5066501;28;20032;-75
2023/07/07 03:09:09;;;;;;;0.00;0.00;;;;;;;10.60;90.65;100343.66;5027564;28;20031;-75
2023/07/07 03:11:34;;;;;;;0.00;0.00;;;;;;;10.56;90.73;100342.53;5026709;28;21707;-74
2023/07/07 03:14:00;;;;;;;0.00;0.00;;;;;;;10.56;90.96;100341.75;5033977;28;20120;-73
2023/07/07 03:16:30;;;;;;;0.00;0.00;;;;;;;10.53;91.01;100342.25;5042609;28;20028;-73
2023/07/07 03:19:04;;;;;;;0.00;0.00;;;;;;;10.47;90.66;100330.50;5052608;28;20086;-77
2023/07/07 03:21:31;;;;;;;0.00;0.00;;;;;;;10.45;91.36;100335.38;5039894;28;20110;-75
2023/07/07 03:23:57;;;;;;;0.00;0.00;;;;;;;10.41;90.97;100315.13;5035951;28;20494;-74
2023/07/07 03:26:25;;;;;;;0.00;0.00;;;;;;;10.34;91.25;100306.34;5047090;28;20028;-74
2023/07/07 03:28:51;;;;;;;0.00;0.00;;;;;;;10.40;91.19;100321.72;5042797;28;21222;-73
2023/07/07 03:31:22;;;;;;;0.00;0.00;;;;;;;10.28;91.05;100300.84;5044986;28;20119;-75
2023/07/07 03:33:49;;;;;;;0.00;0.00;;;;;;;10.36;91.26;100309.66;5064816;28;20129;-76
2023/07/07 03:36:15;;;;;;;0.00;0.00;;;;;;;10.27;90.89;100301.94;5032412;28;20029;-77
2023/07/07 03:38:41;;;;;;;0.00;0.00;;;;;;;10.37;91.76;100316.78;5049086;28;20500;-74
2023/07/07 03:41:13;;;;;;;0.00;0.00;;;;;;;10.41;92.13;100317.88;5031591;28;20032;-75
2023/07/07 03:43:39;;;;;;;0.00;0.00;;;;;;;10.36;91.38;100309.66;5032156;28;20036;-78
2023/07/07 03:46:05;;;;;;;0.00;0.00;;;;;;;10.34;92.14;100304.47;5046674;28;20468;-78
2023/07/07 03:48:30;;;;;;;0.00;0.00;;;;;;;10.34;91.56;100300.91;5031737;28;20441;-78
2023/07/07 03:51:01;;;;;;;0.00;0.00;;;;;;;10.48;92.04;100319.28;5028819;28;20040;-78
2023/07/07 03:53:59;;;;;;;0.00;0.00;;;;;;;10.44;91.88;100306.41;5044947;28;20099;-77
2023/07/07 03:56:26;;;;;;;0.00;0.00;;;;;;;10.44;92.82;100311.88;5049065;28;20428;-78
2023/07/07 03:58:53;;;;;;;0.00;0.00;;;;;;;10.46;92.45;100310.50;5016100;28;20081;-78
2023/07/07 04:01:18;;;;;;;0.00;0.00;;;;;;;10.45;92.24;100319.00;5051225;28;20020;-75
2023/07/07 04:03:46;;;;;;;0.00;0.00;;;;;;;10.52;92.84;100318.75;5039963;28;20032;-77
2023/07/07 04:06:15;;;;;;;0.10;0.10;;;;;;;10.47;92.09;100312.16;5046594;28;20024;-77
2023/07/07 04:08:44;;;;;;;0.00;0.00;;;;;;;10.53;92.68;100314.91;5049457;28;20025;-76
2023/07/07 04:11:17;;;;;;;0.10;0.10;;;;;;;10.62;93.07;100330.53;5039324;28;20036;-77
2023/07/07 04:13:44;;;;;;;0.00;0.00;;;;;;;10.68;93.02;100327.81;5065326;28;20107;-75
2023/07/07 04:16:24;;;;;;;0.00;0.00;;;;;;;10.72;92.64;100326.16;5041693;28;20045;-77
2023/07/07 04:18:53;;;;;;;0.00;0.00;;;;;;;10.72;92.66;100318.81;5068822;28;20016;-77
2023/07/07 04:21:22;;;;;;;0.10;0.10;;;;;;;10.79;93.28;100324.00;5056504;28;20070;-76
2023/07/07 04:23:53;;;;;;;0.00;0.00;;;;;;;10.82;93.10;100321.56;5050335;28;20024;-77
2023/07/07 04:26:23;;;;;;;0.00;0.00;;;;;;;10.89;93.01;100328.69;5050890;28;20017;-80
2023/07/07 04:28:53;;;;;;;0.00;0.00;;;;;;;10.85;93.68;100322.94;5039452;28;20162;-78
2023/07/07 04:31:21;;;;;;;0.00;0.00;;;;;;;10.83;93.45;100311.44;5029581;28;20044;-78
2023/07/07 04:33:59;;;;;;;;;;;;;;;;;;;;;
2023/07/07 04:36:25;;;;;;;0.00;0.00;;;;;;;10.94;93.17;100326.78;5062619;28;20463;-78
2023/07/07 04:38:50;;;;;;;0.00;0.00;;;;;;;10.95;93.20;100328.44;5028972;28;20125;-77
2023/07/07 04:41:22;;;;;;;0.00;0.00;;;;;;;11.03;93.07;100331.72;5061219;28;20024;-77
2023/07/07 04:43:50;;;;;;;0.00;0.00;;;;;;;11.01;92.95;100326.53;5045501;28;20024;-78
2023/07/07 04:46:19;;;;;;;0.00;0.00;;;;;;;11.03;92.90;100329.00;5068097;28;20021;-77
2023/07/07 04:48:45;;;;;;;0.00;0.00;;;;;;;11.07;92.71;100325.44;5046884;28;20024;-78
2023/07/07 04:51:11;;;;;;;0.00;0.00;;;;;;;11.13;93.31;100329.00;5033799;28;20071;-79
2023/07/07 04:53:41;;;;;;;0.00;0.00;;;;;;;11.16;92.97;100329.28;5053629;28;20783;-78
2023/07/07 04:56:24;;;;;;;0.00;0.00;;;;;;;11.12;92.47;100310.94;5051602;28;20497;-78
2023/07/07 04:58:52;;;;;;;0.00;0.00;;;;;;;11.32;92.01;100332.84;5046104;28;20032;-79
2023/07/07 05:01:23;;;;;;;0.00;0.00;;;;;;;11.36;92.48;100327.66;5021929;28;20032;-76
2023/07/07 05:03:54;;;;;;;0.00;0.00;;;;;;;11.45;92.21;100331.47;5039264;28;20451;-78
2023/07/07 05:06:21;;;;;;;0.00;0.00;;;;;;;11.48;91.79;100325.44;5042310;28;20025;-77
2023/07/07 05:08:46;;;;;;;0.00;0.00;;;;;;;11.61;92.11;100332.31;5019520;28;20033;-76
2023/07/07 05:11:15;;;;;;;0.00;0.00;;;;;;;11.67;91.37;100312.00;5033621;28;20089;-76
2023/07/07 05:13:40;;;;;;;0.00;0.00;;;;;;;11.80;90.92;100327.06;5043657;28;20024;-76
2023/07/07 05:16:09;;;;;;;0.00;0.00;;;;;;;11.90;90.64;100328.97;5045446;28;20048;-76
2023/07/07 05:18:35;;;;;;;0.00;0.00;;;;;;;11.89;90.39;100319.09;5068548;28;20020;-77
2023/07/07 05:21:01;;;;;;;0.00;0.00;;;;;;;12.09;89.95;100328.41;5052920;28;20078;-78
2023/07/07 05:23:26;;;;;;;0.00;0.00;;;;;;;12.08;89.89;100313.06;5029402;28;20489;-77
2023/07/07 05:25:52;;;;;;;0.00;0.00;;;;;;;12.24;89.59;100322.88;5042015;28;20021;-77
2023/07/07 05:28:19;;;;;;;0.00;0.00;;;;;;;12.34;89.35;100333.81;5032899;28;20043;-76
2023/07/07 05:31:40;;;;;;;0.00;0.00;;;;;;;12.39;89.20;100328.28;5067167;28;20028;-77
2023/07/07 05:34:20;;;;;;;0.00;0.00;;;;;;;12.54;89.08;100323.84;5033909;28;20169;-78
2023/07/07 05:36:49;;;;;;;0.00;0.00;;;;;;;12.56;89.04;100314.22;5027762;28;20060;-78
2023/07/07 05:39:14;;;;;;;0.00;0.00;;;;;;;12.69;88.54;100320.22;5035084;28;20441;-77
2023/07/07 05:41:39;;;;;;;0.00;0.00;;;;;;;12.86;88.50;100331.63;5013351;28;20040;-78
2023/07/07 05:44:05;;;;;;;0.00;0.00;;;;;;;12.95;88.54;100337.31;5015564;28;20051;-78
2023/07/07 05:46:33;;;;;;;0.00;0.00;;;;;;;12.97;87.88;100315.91;5021835;28;20030;-77
2023/07/07 05:48:58;;;;;;;0.00;0.00;;;;;;;13.05;87.83;100309.00;5005582;28;20090;-79
2023/07/07 05:51:26;;;;;;;0.00;0.00;;;;;;;13.13;87.30;100311.16;5025921;28;20037;-80
2023/07/07 05:53:55;;;;;;;0.00;0.00;;;;;;;13.27;87.03;100316.78;5029852;28;20143;-79
2023/07/07 05:56:25;;;;;;;0.00;0.00;;;;;;;13.42;86.55;100322.19;5019950;28;20044;-79
2023/07/07 05:58:57;;;;;;;0.00;0.00;;;;;;;13.66;86.18;100343.41;5019287;28;20036;-78
2023/07/07 06:01:23;;;;;;;0.00;0.00;;;;;;;13.71;86.01;100343.38;5032385;28;20111;-77
2023/07/07 06:03:49;;;;;;;0.00;0.00;;;;;;;13.83;85.43;100343.00;5038391;28;20150;-76
2023/07/07 06:06:25;;;;;;;0.00;0.00;;;;;;;13.94;85.05;100340.97;5048385;28;20418;-75
2023/07/07 06:08:53;;;;;;;0.00;0.00;;;;;;;14.03;85.12;100333.72;5051228;28;20503;-77
2023/07/07 06:11:19;;;;;;;0.00;0.00;;;;;;;14.14;84.45;100351.72;5044427;28;21088;-76
2023/07/07 06:13:47;;;;;;;0.00;0.00;;;;;;;14.23;83.94;100357.41;5051008;28;20056;-75
2023/07/07 06:16:33;;;;;;;0.00;0.00;;;;;;;14.33;83.67;100362.00;5028514;28;20047;-76
2023/07/07 06:19:11;;;;;;;0.00;0.00;;;;;;;14.47;83.60;100356.59;5100944;23;20210;-76
2023/07/07 06:21:37;;;;;;;0.00;0.00;;;;;;;14.51;83.42;100346.63;5012410;28;20048;-75
2023/07/07 06:24:05;;;;;;;0.00;0.00;;;;;;;14.64;82.84;100356.13;5000914;28;20025;-75
2023/07/07 06:26:30;;;;;;;0.00;0.00;;;;;;;14.78;82.91;100361.75;5012506;28;20025;-76
2023/07/07 06:29:12;;;;;;;0.00;0.00;;;;;;;14.85;82.70;100356.69;5002447;28;20029;-75
2023/07/07 06:31:39;;;;;;;0.00;0.00;;;;;;;14.86;82.12;100346.50;4963492;28;20042;-75
2023/07/07 06:34:07;;;;;;;0.00;0.00;;;;;;;15.06;81.96;100361.91;5010397;28;20132;-78
2023/07/07 06:36:32;;;;;;;0.00;0.00;;;;;;;15.11;81.51;100359.91;5020676;28;20037;-77
2023/07/07 06:39:01;;;;;;;0.00;0.00;;;;;;;15.04;81.18;100348.44;5036973;28;20079;-79
2023/07/07 06:41:26;;;;;;;0.00;0.00;;;;;;;14.94;80.96;100343.09;5001015;28;20032;-76
2023/07/07 06:43:56;;;;;;;0.00;0.00;;;;;;;15.06;81.24;100348.97;5040731;28;20044;-76
2023/07/07 06:46:24;;;;;;;0.00;0.00;;;;;;;15.21;81.45;100358.09;5050531;28;20029;-77
2023/07/07 06:48:50;;;;;;;0.00;0.00;;;;;;;15.24;81.23;100352.81;5029583;28;20028;-74
2023/07/07 06:51:27;;;;;;;0.00;0.00;;;;;;;15.34;81.02;100349.09;5051923;28;20029;-74
2023/07/07 06:53:52;;;;;;;0.00;0.00;;;;;;;15.50;80.39;100355.97;5020820;28;20548;-74
2023/07/07 06:56:21;;;;;;;0.00;0.00;;;;;;;15.39;80.26;100326.13;5042516;28;20050;-78
2023/07/07 06:59:14;;;;;;;;;;;;;;;;;;;;;
2023/07/07 07:01:44;;;;;;;0.00;0.00;;;;;;;15.73;79.57;100341.56;5051714;28;20024;-77
2023/07/07 07:07:50;;;;;;;;;;;;;;;;;;;;;
2023/07/07 07:10:30;;;;;;;0.00;0.00;;;;;;;15.90;78.28;100329.97;5046822;28;20024;-79
2023/07/07 07:13:13;;;;;;;;;;;;;;;;;;;;;
2023/07/07 07:15:39;;;;;;;0.00;0.00;;;;;;;16.04;78.63;100341.84;5038558;28;20193;-79
2023/07/07 07:18:04;;;;;;;0.00;0.00;;;;;;;16.22;78.44;100349.22;5014999;28;20127;-81
2023/07/07 07:20:33;;;;;;;0.00;0.00;;;;;;;16.23;78.32;100345.31;5044225;28;20029;-79
2023/07/07 07:22:58;;;;;;;0.00;0.00;;;;;;;16.35;77.57;100349.53;5017393;28;20056;-78
2023/07/07 07:25:26;;;;;;;0.00;0.00;;;;;;;16.42;77.41;100347.16;5012208;28;20469;-78
2023/07/07 07:27:55;;;;;;;0.00;0.00;;;;;;;16.56;76.62;100347.19;5015679;28;20434;-80
2023/07/07 07:30:20;;;;;;;0.00;0.00;;;;;;;16.75;76.15;100349.81;5014057;28;20017;-79
2023/07/07 07:32:56;;;;;;;;;;;;;;;;;;;;;
2023/07/07 07:35:24;;;;;;;0.00;0.00;;;;;;;16.98;74.58;100349.88;5037525;28;20483;-79
2023/07/07 07:37:49;;;;;;;0.00;0.00;;;;;;;17.12;74.43;100347.91;5014388;28;20037;-80
2023/07/07 07:40:22;;;;;;;0.00;0.00;;;;;;;17.33;74.21;100350.16;5022279;28;20037;-80
2023/07/07 07:43:06;;;;;;;0.00;0.00;;;;;;;17.30;72.80;100325.94;5042909;28;20067;-79
2023/07/07 07:45:36;;;;;;;0.00;0.00;;;;;;;17.59;72.57;100331.00;5016981;28;20373;-80
2023/07/07 07:48:15;;;;;;;0.00;0.00;;;;;;;17.86;71.65;100343.03;5048656;28;20362;-80
2023/07/07 07:51:00;;;;;;;0.00;0.00;;;;;;;18.03;71.26;100347.88;4996332;28;20029;-79
2023/07/07 07:53:26;;;;;;;0.00;0.00;;;;;;;18.03;70.14;100331.28;5006667;28;20041;-80
2023/07/07 07:56:04;;;;;;;0.00;0.00;;;;;;;18.21;68.91;100348.75;5038608;28;20127;-78
2023/07/07 07:58:48;;;;;;;;;;;;;;;;;;;;;
2023/07/07 08:01:16;;;;;;;0.00;0.00;;;;;;;18.29;68.76;100323.88;5041838;28;20021;-79
2023/07/07 08:03:42;;;;;;;0.00;0.00;;;;;;;18.55;69.02;100345.28;5030688;28;20021;-79
2023/07/07 08:06:07;;;;;;;0.00;0.00;;;;;;;18.71;68.47;100325.47;5011113;28;20843;-80
2023/07/07 08:08:40;;;;;;;0.00;0.00;;;;;;;19.01;67.63;100337.56;4994449;28;20022;-79
2023/07/07 08:11:06;;;;;;;0.00;0.00;;;;;;;19.09;65.98;100330.41;5031441;28;20026;-72
2023/07/07 08:13:37;;;;;;;0.00;0.00;;;;;;;19.12;63.37;100352.75;5038494;28;20111;-71
2023/07/07 08:16:02;;;;;;;0.00;0.00;;;;;;;18.90;62.54;100331.53;5032371;28;20037;-72
2023/07/07 08:18:28;;;;;;;0.00;0.00;;;;;;;19.04;62.49;100347.19;4998755;28;20051;-71
2023/07/07 08:20:53;;;;;;;0.00;0.00;;;;;;;19.13;62.40;100356.34;5031397;28;20040;-71
2023/07/07 08:23:18;;;;;;;0.00;0.00;;;;;;;19.22;62.52;100348.03;5033545;28;20083;-72
2023/07/07 08:25:52;;;;;;;0.00;0.00;;;;;;;19.41;61.79;100344.91;5008579;28;20048;-72
2023/07/07 08:28:21;;;;;;;0.00;0.00;;;;;;;19.49;60.41;100353.22;5019829;28;20063;-72
2023/07/07 08:30:48;;;;;;;0.00;0.00;;;;;;;19.59;60.48;100340.16;5041809;28;20064;-71
2023/07/07 08:33:16;;;;;;;0.00;0.00;;;;;;;19.90;59.95;100342.72;5017363;28;20029;-73
2023/07/07 08:35:42;;;;;;;0.00;0.00;;;;;;;20.16;59.17;100339.03;5035188;28;20375;-71
2023/07/07 08:38:08;;;;;;;0.00;0.00;;;;;;;20.40;58.80;100336.47;5018166;28;20040;-71
2023/07/07 08:40:56;;;;;;;0.00;0.00;;;;;;;20.54;57.91;100324.31;5021162;28;20032;-72
2023/07/07 08:43:23;;;;;;;0.00;0.00;;;;;;;20.68;57.29;100329.66;5025665;28;20111;-72
2023/07/07 08:46:14;;;;;;;0.00;0.00;;;;;;;20.89;56.86;100335.22;5033390;28;20075;-70
2023/07/07 08:48:56;;;;;;;0.00;0.00;;;;;;;20.86;55.60;100325.59;5039290;28;20152;-71
2023/07/07 08:51:36;;;;;;;0.00;0.00;;;;;;;20.89;54.83;100329.66;5050161;28;20025;-70
2023/07/07 08:54:43;;;;;;;0.00;0.00;;;;;;;20.99;55.42;100323.69;5047415;28;20756;-70
2023/07/07 08:57:11;;;;;;;0.00;0.00;;;;;;;20.89;54.01;100318.53;4949488;28;20125;-71
2023/07/07 09:00:01;;;;;;;0.00;0.00;;;;;;;20.91;54.56;100333.72;5009118;28;20368;-71
2023/07/07 09:02:33;;;;;;;0.00;0.00;;;;;;;20.80;52.98;100332.50;5016670;28;20040;-70
2023/07/07 09:05:21;;;;;;;0.00;0.00;;;;;;;20.70;53.24;100328.16;5049790;28;20044;-72
2023/07/07 09:08:12;;;;;;;0.00;0.00;;;;;;;20.89;53.70;100329.66;5035238;28;20029;-70
2023/07/07 09:11:01;;;;;;;0.00;0.00;;;;;;;21.17;53.75;100326.34;5043497;28;20059;-71
2023/07/07 09:13:33;;;;;;;0.00;0.00;;;;;;;21.40;53.31;100322.03;5027906;28;20086;-73
2023/07/07 09:16:04;;;;;;;0.00;0.00;;;;;;;21.55;53.03;100319.78;5042216;28;20112;-72
2023/07/07 09:18:35;;;;;;;0.00;0.00;;;;;;;21.71;52.25;100318.00;5045115;28;20041;-71
2023/07/07 09:21:03;;;;;;;0.00;0.00;;;;;;;21.88;52.25;100324.53;5049366;28;20033;-71
2023/07/07 09:23:40;;;;;;;0.00;0.00;;;;;;;22.07;52.28;100330.34;5036052;28;20033;-72
2023/07/07 09:26:19;;;;;;;0.00;0.00;;;;;;;22.13;52.12;100328.94;5048715;28;20059;-70
2023/07/07 09:28:47;;;;;;;0.00;0.00;;;;;;;22.18;50.76;100327.09;5042206;28;20111;-71
2023/07/07 09:31:27;;;;;;;0.00;0.00;;;;;;;22.21;50.41;100323.63;5047928;28;20080;-71
2023/07/07 09:33:54;;;;;;;0.00;0.00;;;;;;;22.35;50.82;100318.53;5047213;28;20028;-71
2023/07/07 09:36:19;;;;;;;0.00;0.00;;;;;;;22.58;50.72;100329.22;5042851;28;20375;-70
2023/07/07 09:39:22;;;;;;;0.00;0.00;;;;;;;22.58;50.30;100327.22;5044037;28;20028;-71
2023/07/07 09:41:50;;;;;;;0.00;0.00;;;;;;;22.67;49.59;100341.03;5042014;28;20028;-71
2023/07/07 09:44:34;;;;;;;0.00;0.00;;;;;;;22.67;48.74;100343.81;5050136;28;20028;-72
2023/07/07 09:47:14;;;;;;;0.00;0.00;;;;;;;22.51;47.00;100335.38;5015784;28;20091;-71
2023/07/07 09:49:54;;;;;;;0.00;0.00;;;;;;;22.41;48.42;100336.63;5028664;28;20087;-71
2023/07/07 09:52:41;;;;;;;0.00;0.00;;;;;;;22.39;47.70;100330.63;5041332;28;20376;-70
2023/07/07 09:55:33;;;;;;;0.00;0.00;;;;;;;22.43;47.47;100334.34;5039893;28;20119;-71
2023/07/07 09:58:26;;;;;;;0.00;0.00;;;;;;;22.48;47.59;100322.94;5021750;28;20037;-71
2023/07/07 10:00:55;;;;;;;0.00;0.00;;;;;;;22.65;48.40;100319.09;5035378;28;20104;-73
2023/07/07 10:03:31;;;;;;;0.00;0.00;;;;;;;23.00;48.56;100312.19;5034845;28;20646;-71
2023/07/07 10:06:00;;;;;;;0.00;0.00;;;;;;;23.34;47.75;100315.56;5031297;28;20024;-73
2023/07/07 10:08:26;;;;;;;0.00;0.00;;;;;;;23.56;46.94;100310.59;5040325;28;20514;-72
2023/07/07 10:11:08;;;;;;;0.00;0.00;;;;;;;23.59;46.66;100326.59;5037896;28;20128;-72
2023/07/07 10:13:33;;;;;;;0.00;0.00;;;;;;;23.73;46.80;100310.25;5038736;28;20025;-71
2023/07/07 10:16:10;;;;;;;0.00;0.00;;;;;;;24.03;46.43;100307.03;5027600;28;20033;-72
2023/07/07 10:18:36;;;;;;;0.00;0.00;;;;;;;24.19;45.75;100310.63;5038219;28;20137;-71
2023/07/07 10:21:06;;;;;;;0.00;0.00;;;;;;;24.09;45.56;100313.97;5046013;28;20024;-73
2023/07/07 10:23:31;;;;;;;0.00;0.00;;;;;;;24.02;45.77;100316.59;5019304;28;21623;-71
2023/07/07 10:25:57;;;;;;;0.00;0.00;;;;;;;24.13;45.96;100317.66;5038992;28;20041;-71
2023/07/07 10:28:24;;;;;;;0.00;0.00;;;;;;;24.47;46.11;100315.28;5035863;28;20032;-75
2023/07/07 10:30:51;;;;;;;0.00;0.00;;;;;;;24.93;45.98;100314.75;5017480;28;20057;-73
2023/07/07 10:33:21;;;;;;;0.00;0.00;;;;;;;25.27;46.63;100312.25;5034807;28;20021;-71
2023/07/07 10:35:47;;;;;;;0.00;0.00;;;;;;;25.61;45.02;100307.75;5023346;28;21867;-72
2023/07/07 10:38:12;;;;;;;0.00;0.00;;;;;;;25.92;42.51;100319.91;5026385;28;20033;-72
2023/07/07 10:40:41;;;;;;;0.00;0.00;;;;;;;25.88;41.30;100302.22;5039394;28;20032;-73
2023/07/07 10:43:13;;;;;;;0.00;0.00;;;;;;;26.12;42.54;100305.84;5023999;28;20526;-72
2023/07/07 10:45:43;;;;;;;0.00;0.00;;;;;;;26.79;42.53;100322.09;5017140;28;20032;-72
2023/07/07 10:48:14;;;;;;;0.00;0.00;;;;;;;26.98;39.98;100309.97;5043672;28;20033;-72
2023/07/07 10:50:59;;;;;;;0.00;0.00;;;;;;;27.43;39.99;100300.88;5032666;28;20443;-71
2023/07/07 10:53:52;;;;;;;0.00;0.00;;;;;;;28.52;38.40;100317.53;5036618;28;20036;-73
2023/07/07 10:56:38;;;;;;;0.00;0.00;;;;;;;29.55;34.39;100326.88;5020186;28;20025;-72
2023/07/07 10:59:25;;;;;;;0.00;0.00;;;;;;;30.40;33.43;100325.38;5034196;28;20056;-72
2023/07/07 11:01:59;;;;;;;0.00;0.00;;;;;;;31.62;31.37;100312.06;5040652;28;20029;-72
2023/07/07 11:05:01;;;;;;;0.00;0.00;;;;;;;33.00;29.81;100313.25;5033499;28;20020;-71
2023/07/07 11:07:51;;;;;;;0.00;0.00;;;;;;;34.75;27.42;100325.13;5042820;28;20021;-73
2023/07/07 11:10:26;;;;;;;0.00;0.00;;;;;;;35.03;26.15;100305.97;5041051;28;20360;-74
2023/07/07 11:13:22;;;;;;;0.00;0.00;;;;;;;36.73;24.38;100310.44;5020348;28;20033;-72
2023/07/07 11:16:14;;;;;;;0.00;0.00;;;;;;;37.64;23.03;100300.81;5038268;28;20040;-72
2023/07/07 11:19:26;;;;;;;0.00;0.00;;;;;;;39.78;22.53;100299.22;5019345;28;20045;-71
2023/07/07 11:22:00;;;;;;;0.00;0.00;;;;;;;41.20;20.25;100296.72;4951179;28;20410;-71
2023/07/07 11:24:35;;;;;;;0.00;0.00;;;;;;;40.98;18.11;100309.19;5010999;28;20029;-71
2023/07/07 11:27:28;;;;;;;0.00;0.00;;;;;;;40.80;19.18;100287.88;5024580;28;20025;-71
2023/07/07 11:30:00;;;;;;;0.00;0.00;;;;;;;41.78;18.57;100295.56;5010201;28;20475;-71
2023/07/07 11:32:58;;;;;;;0.00;0.00;;;;;;;41.76;17.34;100285.84;5034834;28;20480;-71
2023/07/07 11:35:37;;;;;;;0.00;0.00;;;;;;;41.57;17.33;100276.50;5026100;28;20030;-70
2023/07/07 11:38:13;;;;;;;0.00;0.00;;;;;;;42.37;17.78;100283.50;5036876;28;20048;-72
2023/07/07 11:41:01;;;;;;;0.00;0.00;;;;;;;43.31;16.15;100274.75;5033732;28;20048;-71
2023/07/07 11:43:38;;;;;;;0.00;0.00;;;;;;;43.85;16.71;100269.56;5035012;28;20033;-70
2023/07/07 11:46:31;;;;;;;0.00;0.00;;;;;;;45.45;16.29;100272.88;5041124;28;20056;-70
2023/07/07 11:49:18;;;;;;;0.00;0.00;;;;;;;46.93;15.82;100269.22;5026437;28;20033;-71
2023/07/07 11:52:03;;;;;;;0.00;0.00;;;;;;;47.87;14.99;100250.69;5012690;28;20049;-70
2023/07/07 11:54:41;;;;;;;0.00;0.00;;;;;;;48.55;14.32;100256.19;5028637;28;20021;-70
2023/07/07 11:57:48;;;;;;;0.00;0.00;;;;;;;48.60;13.82;100246.63;5026472;28;20033;-72
2023/07/07 12:00:38;;;;;;;0.00;0.00;;;;;;;49.21;13.10;100258.31;5033406;28;20021;-71
2023/07/07 12:03:39;;;;;;;0.00;0.00;;;;;;;47.83;12.86;100241.50;5015919;28;20120;-76